Station WKXA1 - Safe Harbor Met Station, Weeks Bay Reserve, AL Image indicating link to RSS feed of recent meteorological observations for station WKXA1


Conditions at WKXA1 as of
(5:45 pm CDT)
2245 GMT on 05/09/2026:
     

Click on the graph icon in the table below to see a time series plot of the last five days of that observation.

5-day plot - Wind Speed Wind Speed (WSPD): 0.0 kts
5-day plot - Atmospheric Pressure Atmospheric Pressure (PRES):29.91 in
5-day plot - Air Temperature Air Temperature (ATMP): 70.2 °F
5-day plot - Dew Point Dew Point (DEWP): 69.1 °F
5-day plot -  Wind Speed, Wind Gust and Atmospheric Pressure Combined plot of Wind Speed, Gust, and Air Pressure
Previous observations
TIME
(CDT)
5-day plot - Wind Direction
WDIR
 
5-day plot - Wind Speed
WSPD
kts
5-day plot - Wind Gust
GST
kts
5-day plot - Wave Height
WVHT
ft
5-day plot - Dominant Wave Period
DPD
sec
5-day plot - Average Wave Period
APD
sec
5-day plot - Mean Wave Direction
MWD
 
5-day plot - Atmospheric Pressure
PRES
in
5-day plot - Pressure Tendency
PTDY
in
5-day plot - Air Temperature
ATMP
°F
5-day plot - Water Temperature
WTMP
°F
5-day plot - Dew Point
DEWP
°F
5-day plot - Salinity
SAL
psu
5-day plot - Visibility
VIS
nmi
5-day plot - Tide (above MLLW)
TIDE
ft
2026-05-09 05:30 pm- 0.0-----29.91- 70.2- 68.7---
2026-05-09 05:15 pm- 0.0-----29.91- 70.2- 68.7---
2026-05-09 05:00 pm- 0.0-----29.88+0.03 70.5- 69.1---
2026-05-09 04:45 pm- 0.0-----29.88- 70.5- 69.1---
2026-05-09 04:30 pm N 1.0-----29.88- 70.5- 68.4---
2026-05-09 04:15 pm- 0.0-----29.88- 70.7- 68.5---
2026-05-09 04:00 pm- 0.0-----29.88+0.00 71.2- 69.4---
2026-05-09 03:45 pm E 1.0-----29.88- 71.2- 69.4---
2026-05-09 03:30 pmNNW 1.0-----29.88- 71.4- 68.7---
2026-05-09 03:15 pmNNW 1.0-----29.88- 72.1- 69.1---
2026-05-09 03:00 pm- 0.0-----29.85-0.09 72.1- 68.5---
2026-05-09 02:45 pmSSE 1.0-----29.85- 71.8- 68.2---
2026-05-09 02:30 pmSSE 1.0-----29.83- 71.8- 67.5---
2026-05-09 02:15 pmSSE 1.0-----29.83- 71.4- 67.1---
2026-05-09 02:00 pmSSE 1.9-----29.85-0.15 71.4- 67.1---
2026-05-09 01:45 pmSSE 1.9-----29.85- 71.6- 66.9---
2026-05-09 01:30 pmESE 1.0-----29.85- 72.1- 67.8---
2026-05-09 01:15 pm E 1.9-----29.85- 71.2- 67.6---
2026-05-09 01:00 pmENE 2.9-----29.88-0.09 70.3- 67.1---
2026-05-09 12:45 pmENE 1.9-----29.88- 70.0- 67.6---
2026-05-09 12:30 pmENE 2.9-----29.91- 67.8- 66.0---
2026-05-09 12:15 pmENE 4.1-----29.91- 66.9- 65.8---
2026-05-09 12:00 pm NE 1.9-----29.94+0.03 66.6- 65.7---
2026-05-09 11:45 am NE 2.9-----29.97- 66.0- 65.1---
2026-05-09 11:30 am NE 1.9-----29.97- 66.0- 65.5---
2026-05-09 11:15 am- 0.0-----30.00- 65.7- 65.1---
2026-05-09 11:00 amNNW 1.9-----30.00+0.09 65.7- 65.1---
2026-05-09 10:45 amNNE 2.9-----29.97- 65.8- 64.9---
2026-05-09 10:30 amNNE 1.9-----29.97- 66.0- 64.9---
2026-05-09 10:15 amNNE 2.9-----29.97- 66.2- 65.1---
2026-05-09 10:00 am N 4.1-----29.97+0.12 66.4- 65.3---
2026-05-09 09:45 amNNW 4.1-----29.97- 67.1- 65.7---
2026-05-09 09:30 amNNW 4.1-----29.94- 68.5- 67.6---
2026-05-09 09:15 amNNW 1.9-----29.91- 68.9- 68.4---
2026-05-09 09:00 am N 1.0-----29.91+0.09 68.9- 68.4---
2026-05-09 08:45 am N 1.0-----29.91- 68.9- 68.4---
2026-05-09 08:30 amNNE 1.0-----29.91- 68.7- 68.2---
2026-05-09 08:15 amNNE 1.0-----29.91- 68.7- 68.2---
2026-05-09 08:00 am N 1.0-----29.91+0.12 68.5- 68.0---
2026-05-09 07:45 am N 1.9-----29.88- 68.5- 68.0---
2026-05-09 07:30 am N 1.0-----29.88- 68.5- 68.0---
2026-05-09 07:15 amNNE 1.0-----29.85- 68.4- 67.8---
2026-05-09 07:00 am- 0.0-----29.85+0.03 68.5- 68.0---
2026-05-09 06:45 am- 0.0-----29.85- 68.5- 68.0---
2026-05-09 06:30 am- 0.0-----29.85- 68.5- 67.6---
2026-05-09 06:15 am N 1.0-----29.85- 68.9- 68.0---
2026-05-09 06:00 am N 1.9-----29.83-0.09 69.1- 68.5---
2026-05-09 05:45 am- 0.0-----29.83- 69.3- 68.4---
2026-05-09 05:30 amNNE 1.0-----29.80- 69.1- 68.0---
2026-05-09 05:15 am- 0.0-----29.80- 68.9- 67.8---
2026-05-09 05:00 am SE 1.9-----29.80-0.09 68.9- 67.5---
2026-05-09 04:45 amESE 1.9-----29.80- 67.8- 67.3---
2026-05-09 04:30 am- 0.0-----29.83- 67.5- 66.9---
2026-05-09 04:15 am- 0.0-----29.83- 67.1- 66.6---
2026-05-09 04:00 am- 0.0-----29.83-0.06 66.7- 66.2---
2026-05-09 03:45 amSSE 1.0-----29.85- 66.6- 66.0---
2026-05-09 03:30 am- 0.0-----29.85- 66.6- 66.0---
2026-05-09 03:15 amENE 1.0-----29.88- 66.7- 66.2---
2026-05-09 03:00 am- 0.0-----29.91+0.00 66.7- 66.2---
2026-05-09 02:45 am- 0.0-----29.91- 66.7- 66.2---
2026-05-09 02:30 am- 0.0-----29.91- 66.9- 66.0---
2026-05-09 02:15 am- 0.0-----29.91- 67.1- 66.0---
2026-05-09 02:00 amNNW 2.9-----29.88+0.03 67.1- 66.2---
2026-05-09 01:45 am S 1.0-----29.85- 66.7- 66.2---
2026-05-09 01:30 amSSE 1.0-----29.88- 66.9- 66.4---
2026-05-09 01:15 am- 0.0-----29.88- 66.9- 66.4---
2026-05-09 01:00 amNNW 1.0-----29.88+0.03 67.1- 66.2---
2026-05-09 12:45 am- 0.0-----29.88- 67.1- 66.2---
2026-05-09 12:30 am- 0.0-----29.91- 67.3- 66.2---
2026-05-09 12:15 am- 0.0-----29.91- 67.5- 66.0---
2026-05-09 12:00 am- 0.0-----29.91+0.00 67.8- 66.0---
2026-05-08 11:45 pm- 0.0-----29.91- 68.2- 66.2---
2026-05-08 11:30 pmWNW 1.9-----29.91- 68.5- 66.2---
2026-05-08 11:15 pmNNW 1.9-----29.88- 69.3- 66.2---
2026-05-08 11:00 pmSSW 1.0-----29.85-0.09 70.2- 66.2---
2026-05-08 10:45 pm SE 1.9-----29.85- 69.8- 66.2---
2026-05-08 10:30 pmSSE 2.9-----29.85- 69.6- 66.0---
2026-05-08 10:15 pmSSE 2.9-----29.85- 69.1- 65.5---
2026-05-08 10:00 pmSSE 2.9-----29.85-0.06 68.7- 66.4---
2026-05-08 09:45 pm SE 1.9-----29.88- 68.5- 67.1---
2026-05-08 09:30 pm SE 1.0-----29.88- 68.5- 67.5---
2026-05-08 09:15 pm SE 2.9-----29.91- 68.2- 67.1---
2026-05-08 09:00 pm SE 1.9-----29.91+0.00 67.5- 66.6---
2026-05-08 08:45 pmESE 1.9-----29.91- 66.9- 66.0---
2026-05-08 08:30 pm- 0.0-----29.94- 66.6- 65.7---
2026-05-08 08:15 pm SE 1.0-----29.94- 66.6- 65.7---
2026-05-08 08:00 pmSSE 1.0-----29.94-0.03 66.7- 65.8---
2026-05-08 07:45 pmSSE 1.0-----29.91- 66.7- 66.2---
2026-05-08 07:30 pm S 1.0-----29.94- 66.9- 66.4---
2026-05-08 07:15 pm- 0.0-----29.91- 66.7- 66.2---
2026-05-08 07:00 pm- 0.0-----29.91-0.06 66.9- 66.0---